createdAt,value
2022-12-13T00:02:07.319Z,97971.91
2022-12-13T00:07:12.382Z,97988.16
2022-12-13T00:12:16.631Z,97977.03
2022-12-13T00:17:20.191Z,97968.44
2022-12-13T00:22:24.925Z,97979.59
2022-12-13T00:27:28.491Z,97978.84
2022-12-13T00:32:32.063Z,97981.41
2022-12-13T00:37:37.070Z,97983.06
2022-12-13T00:42:40.122Z,97994.22
2022-12-13T00:47:43.530Z,97986.56
2022-12-13T00:52:48.427Z,97981.34
2022-12-13T00:57:52.051Z,97984.84
2022-12-13T01:02:55.565Z,97983.19
2022-12-13T01:08:00.544Z,97965.16
2022-12-13T01:13:03.890Z,97973.72
2022-12-13T01:18:07.553Z,97967.72
2022-12-13T01:23:12.297Z,97969.41
2022-12-13T01:28:15.861Z,97972.81
2022-12-13T01:33:19.317Z,97960.81
2022-12-13T01:38:26.215Z,97969.34
2022-12-13T01:43:50.982Z,97977.16
2022-12-13T01:48:59.891Z,97973.72
2022-12-13T01:54:07.726Z,97976.19
2022-12-13T01:59:14.263Z,97993.41
2022-12-13T02:04:22.272Z,97988.22
2022-12-13T02:09:28.037Z,97990.84
2022-12-13T02:14:31.589Z,97980.53
2022-12-13T02:20:31.090Z,97995.97
2022-12-13T02:25:54.980Z,97973.59
2022-12-13T02:31:07.717Z,97989.09
2022-12-13T02:36:18.951Z,97987.34
2022-12-13T02:42:21.316Z,97996.00
2022-12-13T02:48:22.222Z,97980.50
2022-12-13T02:53:27.003Z,97983.06
2022-12-13T02:58:34.561Z,97980.53
2022-12-13T03:03:47.437Z,97996.03
2022-12-13T03:08:58.439Z,97979.72
2022-12-13T03:14:09.091Z,97993.44
2022-12-13T03:19:15.303Z,97983.97
2022-12-13T03:24:20.441Z,97984.81
2022-12-13T03:29:25.093Z,97994.25
2022-12-13T03:34:43.697Z,97987.31
2022-12-13T03:39:49.312Z,97983.91
2022-12-13T03:44:52.801Z,97995.06
2022-12-13T03:49:57.919Z,98000.22
2022-12-13T03:55:21.328Z,98001.97
2022-12-13T04:00:25.208Z,98000.22
2022-12-13T04:05:30.783Z,97989.09
2022-12-13T04:10:35.658Z,97988.22
2022-12-13T04:15:38.974Z,97987.38
2022-12-13T04:20:43.975Z,97990.81
2022-12-13T04:25:47.649Z,97984.84
2022-12-13T04:30:53.693Z,97996.84
2022-12-13T04:35:58.772Z,98001.91
2022-12-13T04:41:09.934Z,98001.03
2022-12-13T04:46:13.349Z,97998.53
2022-12-13T04:51:18.795Z,98002.84
2022-12-13T04:56:22.343Z,98002.78
2022-12-13T05:01:26.030Z,97999.41
2022-12-13T05:06:31.309Z,98008.84
2022-12-13T05:11:35.499Z,98022.56
2022-12-13T05:16:39.695Z,98018.31
2022-12-13T05:21:44.758Z,98022.59
2022-12-13T05:26:48.040Z,98024.28
2022-12-13T05:31:51.679Z,98023.41
2022-12-13T05:36:56.847Z,98027.66
2022-12-13T05:42:02.715Z,98038.81
2022-12-13T05:47:06.680Z,98044.84
2022-12-13T05:52:19.017Z,98038.78
2022-12-13T05:57:22.599Z,98036.28
2022-12-13T06:02:26.018Z,98046.56
2022-12-13T06:07:31.222Z,98032.78
2022-12-13T06:12:35.904Z,98036.16
2022-12-13T06:17:47.009Z,98033.66
2022-12-13T06:22:51.774Z,98044.84
2022-12-13T06:27:55.424Z,98031.97
2022-12-13T06:32:58.897Z,98043.09
2022-12-13T06:38:03.903Z,98039.53
2022-12-13T06:43:15.902Z,98053.38
2022-12-13T06:48:20.425Z,98059.38
2022-12-13T06:53:25.722Z,98064.47
2022-12-13T06:58:29.281Z,98071.34
2022-12-13T07:03:33.033Z,98078.22
2022-12-13T07:08:38.309Z,98097.97
2022-12-13T07:13:41.705Z,98098.81
2022-12-13T07:18:45.224Z,98103.06
2022-12-13T07:23:54.878Z,98093.66
2022-12-13T07:28:59.211Z,98111.75
2022-12-13T07:34:02.791Z,98132.38
2022-12-13T07:39:07.740Z,98132.28
2022-12-13T07:44:10.769Z,98125.44
2022-12-13T07:49:14.247Z,98128.03
2022-12-13T07:54:19.185Z,98139.25
2022-12-13T07:59:28.364Z,98137.38
2022-12-13T08:04:38.125Z,98140.91
2022-12-13T08:09:49.525Z,98149.41
2022-12-13T08:14:56.014Z,98151.97
2022-12-13T08:19:59.403Z,98159.81
2022-12-13T08:25:04.673Z,98158.00
2022-12-13T08:30:09.515Z,98157.16
2022-12-13T08:35:13.036Z,98169.28
2022-12-13T08:40:18.258Z,98183.06
2022-12-13T08:45:21.767Z,98192.50
2022-12-13T08:50:25.274Z,98189.09
2022-12-13T08:55:32.230Z,98202.81
2022-12-13T09:00:36.776Z,98204.53
2022-12-13T09:05:40.282Z,98193.38
2022-12-13T09:10:46.191Z,98201.09
2022-12-13T09:15:49.662Z,98214.84
2022-12-13T09:20:53.583Z,98220.88
2022-12-13T09:26:17.502Z,98227.72
2022-12-13T09:31:21.595Z,98233.72
2022-12-13T09:36:26.445Z,98232.88
2022-12-13T09:41:41.071Z,98238.91
2022-12-13T09:46:47.464Z,98250.91
2022-12-13T09:52:11.683Z,98265.50
2022-12-13T09:57:31.925Z,98269.78
2022-12-13T10:02:43.800Z,98269.78
2022-12-13T10:07:47.619Z,98263.78
2022-12-13T10:12:59.176Z,98282.69
2022-12-13T10:18:05.911Z,98268.03
2022-12-13T10:23:33.111Z,98267.94
2022-12-13T10:28:35.300Z,98266.31
2022-12-13T10:33:46.330Z,98264.63
2022-12-13T10:38:50.996Z,98287.72
2022-12-13T10:44:23.143Z,98282.56
2022-12-13T10:49:29.487Z,98304.03
2022-12-13T10:54:38.825Z,98304.88
2022-12-13T10:59:53.980Z,98309.06
2022-12-13T11:04:59.011Z,98300.47
2022-12-13T11:10:23.681Z,98303.97
2022-12-13T11:15:34.874Z,98325.34
2022-12-13T11:20:39.716Z,98333.06
2022-12-13T11:25:45.206Z,98338.25
2022-12-13T11:31:01.490Z,98342.59
2022-12-13T11:36:17.483Z,98342.69
2022-12-13T11:41:31.367Z,98340.13
2022-12-13T11:46:42.244Z,98357.34
2022-12-13T11:51:50.429Z,98352.91
2022-12-13T11:57:00.611Z,98346.09
2022-12-13T12:02:16.422Z,98346.06
2022-12-13T12:07:32.862Z,98345.16
2022-12-13T12:12:39.179Z,98365.75
2022-12-13T12:17:44.356Z,98374.38
2022-12-13T12:22:54.532Z,98386.47
2022-12-13T12:28:07.005Z,98388.13
2022-12-13T12:33:22.461Z,98383.88
2022-12-13T12:38:48.112Z,98384.66
2022-12-13T12:43:57.743Z,98383.69
2022-12-13T12:49:34.433Z,98389.00
2022-12-13T12:54:45.547Z,98384.72
2022-12-13T13:00:03.647Z,98382.09
2022-12-13T13:05:20.660Z,98377.84
2022-12-13T13:10:26.824Z,98370.91
2022-12-13T13:15:56.637Z,98365.84
2022-12-13T13:21:42.127Z,98386.47
2022-12-13T13:26:49.257Z,98401.69
2022-12-13T13:32:02.109Z,98388.81
2022-12-13T13:37:06.737Z,98371.69
2022-12-13T13:42:19.503Z,98366.66
2022-12-13T13:47:42.155Z,98378.63
2022-12-13T13:52:58.883Z,98381.97
2022-12-13T13:58:29.152Z,98399.09
2022-12-13T14:04:06.190Z,98411.00
2022-12-13T14:09:49.527Z,98426.25
2022-12-13T14:15:34.242Z,98434.88
2022-12-13T14:20:46.928Z,98428.81
2022-12-13T14:26:05.955Z,98428.75
2022-12-13T14:31:22.059Z,98420.28
2022-12-13T14:36:32.553Z,98415.25
2022-12-13T14:41:47.241Z,98412.75
2022-12-13T14:46:55.217Z,98377.56
2022-12-13T14:52:03.923Z,98388.81
2022-12-13T14:57:07.951Z,98393.78
2022-12-13T15:02:18.738Z,98405.03
2022-12-13T15:07:39.092Z,98385.25
2022-12-13T15:12:43.560Z,98388.56
2022-12-13T15:17:48.638Z,98384.34
2022-12-13T15:23:00.086Z,98407.47
2022-12-13T15:28:04.437Z,98402.19
2022-12-13T15:33:19.384Z,98409.28
2022-12-13T15:38:28.761Z,98405.69
2022-12-13T15:43:38.908Z,98413.50
2022-12-13T15:48:48.153Z,98419.44
2022-12-13T15:54:08.071Z,98403.97
2022-12-13T15:59:27.218Z,98421.38
2022-12-13T16:04:34.105Z,98427.28
2022-12-13T16:09:39.896Z,98446.00
2022-12-13T16:14:53.459Z,98444.28
2022-12-13T16:20:16.593Z,98446.97
2022-12-13T16:25:20.907Z,98440.91
2022-12-13T16:30:26.902Z,98422.13
2022-12-13T16:35:31.871Z,98415.41
2022-12-13T16:40:36.038Z,98406.75
2022-12-13T16:45:43.166Z,98400.81
2022-12-13T16:50:57.700Z,98384.59
2022-12-13T16:56:01.739Z,98377.75
2022-12-13T17:01:10.465Z,98376.97
2022-12-13T17:06:18.150Z,98373.44
2022-12-13T17:11:21.883Z,98369.91
2022-12-13T17:16:25.584Z,98364.84
2022-12-13T17:21:30.765Z,98366.56
2022-12-13T17:26:35.476Z,98344.22
2022-12-13T17:31:39.702Z,98342.53
2022-12-13T17:36:45.175Z,98347.75
2022-12-13T17:41:54.444Z,98344.22
2022-12-13T17:46:59.471Z,98334.78
2022-12-13T17:52:04.564Z,98324.53
2022-12-13T17:57:10.633Z,98310.72
2022-12-13T18:02:15.079Z,98302.16
2022-12-13T18:07:20.397Z,98288.50
2022-12-13T18:12:23.781Z,98293.53
2022-12-13T18:17:46.562Z,98293.53
2022-12-13T18:22:52.319Z,98281.59
2022-12-13T18:28:00.778Z,98272.25
2022-12-13T18:33:05.605Z,98271.19
2022-12-13T18:38:10.959Z,98259.25
2022-12-13T18:43:14.438Z,98254.00
2022-12-13T18:48:18.123Z,98254.88
2022-12-13T18:53:23.306Z,98227.47
2022-12-13T18:58:27.223Z,98242.81
2022-12-13T19:03:31.148Z,98244.56
2022-12-13T19:08:36.937Z,98226.50
2022-12-13T19:13:40.516Z,98223.00
2022-12-13T19:18:44.680Z,98212.66
2022-12-13T19:23:56.479Z,98204.16
2022-12-13T19:29:01.214Z,98213.50
2022-12-13T19:34:04.792Z,98201.53
2022-12-13T19:39:11.636Z,98192.19
2022-12-13T19:44:15.559Z,98184.47
2022-12-13T19:49:19.388Z,98191.19
2022-12-13T19:54:26.121Z,98169.84
2022-12-13T19:59:29.836Z,98170.66
2022-12-13T20:04:33.569Z,98139.00
2022-12-13T20:09:39.785Z,98151.91
2022-12-13T20:14:43.304Z,98150.16
2022-12-13T20:19:47.192Z,98147.53
2022-12-13T20:24:52.995Z,98139.00
2022-12-13T20:29:56.698Z,98129.69
2022-12-13T20:35:00.236Z,98122.63
2022-12-13T20:40:05.801Z,98103.75
2022-12-13T20:45:11.006Z,98091.75
2022-12-13T20:50:15.655Z,98081.38
2022-12-13T20:55:21.152Z,98077.16
2022-12-13T21:00:25.446Z,98059.09
2022-12-13T21:05:29.007Z,98053.91
2022-12-13T21:10:34.061Z,98080.28
2022-12-13T21:15:37.636Z,98077.78
2022-12-13T21:20:41.340Z,98074.19
2022-12-13T21:25:46.210Z,98064.63
2022-12-13T21:30:52.061Z,98063.47
2022-12-13T21:35:55.747Z,98065.88
2022-12-13T21:41:00.824Z,98056.56
2022-12-13T21:46:06.481Z,98053.00
2022-12-13T21:51:13.387Z,98052.78
2022-12-13T21:56:38.854Z,98051.16
2022-12-13T22:02:03.248Z,98031.63
2022-12-13T22:07:08.407Z,98025.38
2022-12-13T22:12:21.105Z,98013.19
2022-12-13T22:17:33.060Z,98013.50
2022-12-13T22:22:40.428Z,98012.97
2022-12-13T22:27:45.547Z,98002.50
2022-12-13T22:32:49.050Z,98002.97
2022-12-13T22:37:54.297Z,97978.34
2022-12-13T22:43:01.450Z,97984.44
2022-12-13T22:48:05.735Z,97984.38
2022-12-13T22:53:09.147Z,97984.28
2022-12-13T22:58:14.186Z,97987.81
2022-12-13T23:03:17.615Z,97978.13
2022-12-13T23:08:21.299Z,97964.31
2022-12-13T23:13:26.194Z,97964.38
2022-12-13T23:18:30.213Z,97950.81
2022-12-13T23:23:34.246Z,97937.13
2022-12-13T23:28:40.906Z,97923.38
2022-12-13T23:33:46.463Z,97897.84
2022-12-13T23:38:50.665Z,97893.94
2022-12-13T23:43:57.867Z,97896.78
2022-12-13T23:49:02.610Z,97877.84
2022-12-13T23:54:06.172Z,97860.31
2022-12-13T23:59:11.183Z,97849.72
